createdAt,value
2017-05-02T00:01:40.780Z,83.00
2017-05-02T00:04:09.287Z,82.70
2017-05-02T00:06:38.377Z,81.40
2017-05-02T00:09:06.725Z,80.90
2017-05-02T00:17:21.489Z,80.50
2017-05-02T00:19:50.566Z,80.30
2017-05-02T00:22:18.927Z,80.60
2017-05-02T00:24:47.673Z,80.60
2017-05-02T00:27:16.010Z,80.40
2017-05-02T00:29:44.342Z,80.40
2017-05-02T00:32:12.748Z,80.00
2017-05-02T00:34:41.113Z,80.10
2017-05-02T00:37:09.439Z,79.70
2017-05-02T00:39:37.802Z,80.10
2017-05-02T00:42:06.139Z,80.20
2017-05-02T00:44:34.469Z,80.50
2017-05-02T00:47:02.959Z,80.50
2017-05-02T00:49:32.045Z,80.30
2017-05-02T00:52:00.369Z,80.60
2017-05-02T00:54:28.730Z,80.50
2017-05-02T00:56:57.113Z,80.30
2017-05-02T00:59:25.442Z,80.40
2017-05-02T01:01:54.067Z,80.40
2017-05-02T01:04:22.399Z,80.40
2017-05-02T01:06:50.719Z,80.40
2017-05-02T01:09:19.128Z,80.80
2017-05-02T01:11:47.464Z,80.60
2017-05-02T01:14:16.534Z,80.40
2017-05-02T01:16:45.010Z,80.50
2017-05-02T01:19:13.341Z,80.60
2017-05-02T01:21:41.695Z,80.70
2017-05-02T01:24:10.825Z,80.80
2017-05-02T01:26:39.172Z,81.00
2017-05-02T01:29:07.536Z,81.10
2017-05-02T01:31:36.712Z,82.20
2017-05-02T01:34:05.055Z,82.30
2017-05-02T01:36:33.386Z,82.30
2017-05-02T01:39:01.853Z,82.50
2017-05-02T01:41:30.240Z,81.50
2017-05-02T01:43:58.588Z,82.30
2017-05-02T01:46:26.968Z,82.70
2017-05-02T01:48:55.351Z,82.70
2017-05-02T01:51:23.759Z,82.70
2017-05-02T01:53:52.875Z,82.80
2017-05-02T01:56:21.212Z,83.00
2017-05-02T01:58:49.540Z,83.00
2017-05-02T02:01:18.204Z,83.20
2017-05-02T02:03:46.523Z,83.40
2017-05-02T02:06:14.865Z,83.20
2017-05-02T02:08:43.222Z,83.10
2017-05-02T02:11:12.297Z,83.00
2017-05-02T02:13:40.624Z,83.20
2017-05-02T02:16:09.023Z,83.40
2017-05-02T02:18:37.359Z,83.20
2017-05-02T02:21:05.680Z,83.80
2017-05-02T02:23:34.165Z,82.90
2017-05-02T02:26:02.496Z,83.00
2017-05-02T02:28:31.575Z,83.10
2017-05-02T02:31:00.284Z,83.50
2017-05-02T02:33:28.618Z,83.50
2017-05-02T02:35:56.949Z,83.30
2017-05-02T02:38:25.458Z,83.10
2017-05-02T02:40:53.778Z,83.40
2017-05-02T02:43:22.113Z,83.40
2017-05-02T02:45:50.775Z,83.50
2017-05-02T02:48:19.113Z,83.40
2017-05-02T02:50:47.439Z,83.20
2017-05-02T02:53:15.905Z,83.40
2017-05-02T02:55:44.250Z,83.10
2017-05-02T02:58:12.601Z,83.00
2017-05-02T03:00:41.105Z,83.00
2017-05-02T03:03:09.450Z,83.10
2017-05-02T03:05:37.779Z,83.30
2017-05-02T03:08:06.225Z,82.90
2017-05-02T03:10:34.545Z,82.70
2017-05-02T03:13:02.876Z,83.00
2017-05-02T03:15:31.356Z,82.80
2017-05-02T03:17:59.680Z,82.40
2017-05-02T03:20:28.010Z,82.60
2017-05-02T03:22:56.525Z,82.50
2017-05-02T03:25:25.608Z,82.70
2017-05-02T03:27:53.933Z,82.60
2017-05-02T03:30:22.407Z,83.00
2017-05-02T03:32:50.788Z,84.10
2017-05-02T03:35:19.110Z,83.60
2017-05-02T03:37:47.840Z,83.70
2017-05-02T03:40:16.156Z,84.60
2017-05-02T03:42:44.488Z,83.50
2017-05-02T03:45:12.992Z,84.00
2017-05-02T03:47:41.325Z,84.00
2017-05-02T03:50:09.645Z,83.90
2017-05-02T03:52:38.000Z,83.70
2017-05-02T03:55:06.328Z,84.20
2017-05-02T03:57:34.656Z,84.20
2017-05-02T04:00:03.056Z,84.10
2017-05-02T04:02:31.377Z,83.90
2017-05-02T04:04:59.723Z,84.00
2017-05-02T04:07:28.220Z,84.20
2017-05-02T04:09:56.544Z,84.00
2017-05-02T04:12:24.877Z,83.80
2017-05-02T04:14:53.301Z,83.60
2017-05-02T04:17:21.636Z,83.30
2017-05-02T04:19:49.979Z,83.50
2017-05-02T04:22:18.441Z,83.70
2017-05-02T04:24:46.788Z,83.20
2017-05-02T04:27:15.135Z,83.20
2017-05-02T04:29:43.608Z,83.00
2017-05-02T04:32:11.933Z,83.00
2017-05-02T04:34:40.382Z,83.10
2017-05-02T04:37:08.756Z,82.90
2017-05-02T04:39:37.098Z,82.60
2017-05-02T04:42:05.426Z,83.20
2017-05-02T04:44:34.136Z,82.50
2017-05-02T04:47:02.456Z,82.80
2017-05-02T04:49:30.785Z,82.80
2017-05-02T04:51:59.384Z,81.80
2017-05-02T04:54:27.737Z,82.50
2017-05-02T04:56:56.070Z,82.40
2017-05-02T04:59:24.538Z,81.70
2017-05-02T05:01:52.881Z,81.10
2017-05-02T05:04:21.948Z,82.20
2017-05-02T05:06:50.463Z,81.30
2017-05-02T05:09:18.832Z,82.90
2017-05-02T05:11:47.896Z,82.90
2017-05-02T05:14:16.413Z,81.20
2017-05-02T05:16:45.492Z,80.80
2017-05-02T05:19:13.813Z,80.50
2017-05-02T05:21:42.355Z,81.10
2017-05-02T05:24:10.746Z,80.40
2017-05-02T05:26:39.082Z,80.30
2017-05-02T05:29:07.508Z,80.00
2017-05-02T05:31:35.848Z,79.80
2017-05-02T05:34:04.177Z,80.10
2017-05-02T05:36:32.568Z,78.90
2017-05-02T05:39:01.018Z,78.50
2017-05-02T05:41:29.363Z,76.70
2017-05-02T05:43:57.751Z,77.50
2017-05-02T05:46:26.075Z,77.60
2017-05-02T05:48:54.398Z,77.00
2017-05-02T05:51:22.778Z,77.00
2017-05-02T05:53:51.097Z,76.60
2017-05-02T05:56:19.430Z,76.40
2017-05-02T05:58:47.815Z,76.50
2017-05-02T06:01:16.144Z,76.00
2017-05-02T06:03:44.477Z,75.80
2017-05-02T06:06:12.935Z,75.30
2017-05-02T06:08:41.254Z,75.70
2017-05-02T06:11:10.320Z,75.00
2017-05-02T06:13:38.821Z,74.80
2017-05-02T06:16:07.904Z,74.60
2017-05-02T06:18:36.216Z,75.20
2017-05-02T06:21:04.768Z,75.60
2017-05-02T06:23:33.824Z,75.10
2017-05-02T06:26:02.157Z,75.00
2017-05-02T06:28:31.490Z,75.00
2017-05-02T06:30:59.805Z,75.20
2017-05-02T06:33:28.120Z,75.10
2017-05-02T06:35:56.504Z,75.50
2017-05-02T06:38:24.828Z,75.60
2017-05-02T06:40:53.155Z,76.30
2017-05-02T06:43:21.541Z,75.40
2017-05-02T06:45:49.957Z,75.20
2017-05-02T06:48:18.274Z,74.80
2017-05-02T06:50:47.560Z,74.90
2017-05-02T06:53:16.611Z,75.40
2017-05-02T06:55:44.932Z,75.40
2017-05-02T06:58:14.171Z,74.90
2017-05-02T07:00:43.078Z,75.70
2017-05-02T07:03:11.433Z,74.80
2017-05-02T07:05:40.082Z,74.80
2017-05-02T07:08:09.150Z,75.00
2017-05-02T07:10:37.468Z,75.10
2017-05-02T07:13:06.608Z,74.60
2017-05-02T07:15:34.928Z,74.80
2017-05-02T07:18:03.990Z,74.70
2017-05-02T07:20:32.539Z,74.80
2017-05-02T07:23:00.855Z,74.10
2017-05-02T07:25:29.171Z,74.40
2017-05-02T07:27:58.470Z,74.50
2017-05-02T07:30:27.527Z,73.90
2017-05-02T07:32:55.851Z,73.30
2017-05-02T07:35:24.215Z,73.50
2017-05-02T07:37:53.278Z,73.20
2017-05-02T07:40:21.596Z,73.20
2017-05-02T07:42:50.124Z,72.60
2017-05-02T07:45:18.447Z,72.40
2017-05-02T07:47:46.773Z,72.10
2017-05-02T07:50:15.232Z,72.00
2017-05-02T07:52:43.559Z,73.20
2017-05-02T07:55:11.876Z,71.60
2017-05-02T07:57:40.240Z,71.20
2017-05-02T08:00:09.299Z,70.80
2017-05-02T08:02:37.624Z,71.30
2017-05-02T08:05:06.001Z,70.40
2017-05-02T08:07:34.354Z,70.10
2017-05-02T08:10:03.416Z,69.80
2017-05-02T08:12:31.783Z,69.40
2017-05-02T08:15:00.112Z,68.90
2017-05-02T08:17:29.175Z,67.80
2017-05-02T08:19:57.796Z,67.00
2017-05-02T08:22:26.133Z,67.40
2017-05-02T08:24:54.555Z,66.80
2017-05-02T08:27:23.003Z,67.30
2017-05-02T08:29:51.332Z,67.50
2017-05-02T08:32:19.680Z,66.60
2017-05-02T08:34:48.042Z,66.50
2017-05-02T08:37:17.139Z,66.00
2017-05-02T08:39:45.517Z,66.50
2017-05-02T08:42:14.649Z,66.70
2017-05-02T08:44:42.995Z,65.30
2017-05-02T08:47:12.058Z,65.60
2017-05-02T08:49:40.753Z,65.70
2017-05-02T08:52:09.081Z,65.30
2017-05-02T08:54:37.417Z,66.10
2017-05-02T08:57:05.815Z,65.10
2017-05-02T08:59:34.888Z,64.50
2017-05-02T09:02:03.217Z,63.90
2017-05-02T09:04:31.754Z,63.20
2017-05-02T09:07:00.101Z,61.50
2017-05-02T09:09:28.435Z,62.00
2017-05-02T09:11:57.648Z,61.40
2017-05-02T09:14:26.013Z,61.30
2017-05-02T09:16:54.384Z,61.50
2017-05-02T09:19:23.624Z,63.00
2017-05-02T09:21:52.543Z,61.90
2017-05-02T09:24:20.871Z,61.50
2017-05-02T09:26:49.390Z,61.30
2017-05-02T09:29:17.732Z,60.70
2017-05-02T09:31:46.078Z,60.00
2017-05-02T09:34:14.547Z,60.70
2017-05-02T09:36:42.930Z,61.50
2017-05-02T09:39:11.994Z,61.10
2017-05-02T09:41:40.377Z,59.30
2017-05-02T09:44:08.720Z,59.40
2017-05-02T09:46:37.106Z,59.30
2017-05-02T09:49:05.626Z,59.20
2017-05-02T09:51:33.955Z,59.10
2017-05-02T09:54:02.302Z,58.30
2017-05-02T09:56:31.417Z,57.10
2017-05-02T09:58:59.759Z,57.50
2017-05-02T10:01:28.843Z,58.20
2017-05-02T10:03:57.221Z,57.60
2017-05-02T10:06:25.555Z,57.80
2017-05-02T10:08:54.769Z,56.60
2017-05-02T10:11:23.171Z,57.00
2017-05-02T10:13:51.561Z,56.90
2017-05-02T10:16:19.932Z,56.20
2017-05-02T10:18:48.430Z,56.20
2017-05-02T10:21:16.797Z,55.90
2017-05-02T10:23:45.116Z,55.20
2017-05-02T10:26:13.497Z,56.90
2017-05-02T10:28:41.820Z,56.70
2017-05-02T10:31:10.140Z,56.40
2017-05-02T10:33:38.516Z,56.60
2017-05-02T10:36:06.850Z,56.50
2017-05-02T10:38:35.180Z,57.40
2017-05-02T10:41:03.598Z,57.50
2017-05-02T10:43:31.922Z,57.90
2017-05-02T10:46:01.178Z,57.60
2017-05-02T10:48:29.548Z,57.60
2017-05-02T10:50:58.615Z,57.40
2017-05-02T10:53:26.945Z,56.80
2017-05-02T10:55:55.489Z,57.20
2017-05-02T10:58:23.813Z,56.80
2017-05-02T11:00:52.163Z,56.70
2017-05-02T11:03:20.544Z,56.60
2017-05-02T11:05:48.900Z,56.70
2017-05-02T11:08:17.257Z,57.30
2017-05-02T11:10:45.753Z,57.90
2017-05-02T11:13:14.085Z,58.50
2017-05-02T11:15:42.425Z,59.20
2017-05-02T11:18:10.791Z,58.80
2017-05-02T11:20:39.123Z,58.60
2017-05-02T11:23:08.193Z,59.50
2017-05-02T11:25:36.923Z,61.00
2017-05-02T11:28:05.262Z,62.80
2017-05-02T11:30:33.591Z,62.70
2017-05-02T11:33:02.488Z,63.30
2017-05-02T11:35:30.811Z,63.00
2017-05-02T11:37:59.148Z,63.50
2017-05-02T11:40:27.663Z,63.90
2017-05-02T11:42:55.993Z,65.00
2017-05-02T11:45:24.339Z,65.70
2017-05-02T11:47:53.581Z,66.20
2017-05-02T11:50:21.904Z,66.70
2017-05-02T11:52:50.248Z,66.10
2017-05-02T11:55:18.670Z,65.90
2017-05-02T11:57:47.019Z,66.60
2017-05-02T12:00:15.347Z,66.50
2017-05-02T12:02:43.807Z,66.30
2017-05-02T12:05:13.016Z,65.80
2017-05-02T12:07:41.360Z,66.20
2017-05-02T12:10:10.105Z,66.50
2017-05-02T12:12:38.453Z,66.40
2017-05-02T12:15:06.780Z,65.90
2017-05-02T12:17:35.158Z,65.70
2017-05-02T12:20:03.487Z,66.00
2017-05-02T12:22:32.545Z,65.40
2017-05-02T12:25:01.277Z,65.10
2017-05-02T12:27:29.621Z,65.80
2017-05-02T12:29:57.979Z,65.30
2017-05-02T12:32:26.479Z,64.60
2017-05-02T12:34:54.821Z,64.70
2017-05-02T12:37:23.141Z,65.20
2017-05-02T12:39:51.681Z,66.10
2017-05-02T12:42:20.013Z,66.00
2017-05-02T12:44:49.079Z,66.30
2017-05-02T12:47:17.590Z,65.90
2017-05-02T12:49:46.661Z,66.60
2017-05-02T12:52:14.985Z,66.70
2017-05-02T12:57:11.744Z,68.30
2017-05-02T12:59:40.068Z,68.80
2017-05-02T13:02:08.789Z,69.20
2017-05-02T13:04:37.856Z,70.20
2017-05-02T13:07:06.437Z,70.70
2017-05-02T13:09:35.154Z,71.50
2017-05-02T13:12:03.512Z,71.80
2017-05-02T13:14:31.890Z,72.20
2017-05-02T13:17:00.397Z,72.10
2017-05-02T13:19:28.753Z,72.10
2017-05-02T13:21:57.081Z,72.60
2017-05-02T13:24:25.462Z,72.90
2017-05-02T13:26:53.817Z,72.90
2017-05-02T13:29:22.166Z,73.40
2017-05-02T13:31:51.281Z,73.40
2017-05-02T13:34:19.619Z,73.20
2017-05-02T13:36:47.955Z,73.80
2017-05-02T13:39:16.345Z,73.90
2017-05-02T13:41:44.664Z,74.30
2017-05-02T13:44:13.108Z,73.90
2017-05-02T13:46:41.607Z,74.00
2017-05-02T13:49:09.969Z,74.20
2017-05-02T13:51:38.307Z,74.40
2017-05-02T13:54:06.709Z,74.80
2017-05-02T13:56:35.062Z,74.60
2017-05-02T13:59:03.390Z,74.40
2017-05-02T14:01:31.869Z,73.70
2017-05-02T14:04:00.220Z,74.00
2017-05-02T14:06:28.555Z,73.00
2017-05-02T14:08:57.677Z,72.90
2017-05-02T14:11:26.004Z,72.80
2017-05-02T14:13:54.349Z,72.80
2017-05-02T14:16:22.871Z,73.20
2017-05-02T14:18:51.204Z,73.40
2017-05-02T14:21:19.530Z,73.30
2017-05-02T14:23:48.064Z,74.20
2017-05-02T14:26:16.396Z,73.30
2017-05-02T14:28:44.724Z,71.00
2017-05-02T14:31:13.483Z,70.40
2017-05-02T14:33:42.583Z,72.30
2017-05-02T14:36:10.957Z,70.80
2017-05-02T14:38:40.465Z,71.60
2017-05-02T14:41:08.796Z,72.90
2017-05-02T14:43:37.312Z,74.60
2017-05-02T14:46:06.592Z,73.00
2017-05-02T14:48:34.958Z,74.50
2017-05-02T14:51:03.311Z,75.80
2017-05-02T14:53:31.871Z,76.70
2017-05-02T14:56:00.211Z,75.90
2017-05-02T14:58:29.318Z,76.20
2017-05-02T15:00:58.520Z,77.70
2017-05-02T15:03:26.845Z,78.80
2017-05-02T15:05:55.191Z,77.70
2017-05-02T15:08:23.586Z,78.00
2017-05-02T15:10:51.951Z,79.60
2017-05-02T15:13:20.295Z,78.30
2017-05-02T15:15:49.010Z,79.70
2017-05-02T15:18:17.368Z,81.30
2017-05-02T15:20:46.485Z,81.40
2017-05-02T15:23:15.024Z,82.00
2017-05-02T15:25:43.399Z,83.10
2017-05-02T15:28:11.806Z,84.40
2017-05-02T15:30:40.337Z,84.50
2017-05-02T15:33:08.673Z,85.70
2017-05-02T15:35:37.004Z,86.30
2017-05-02T15:38:05.471Z,87.00
2017-05-02T15:40:33.791Z,88.50
2017-05-02T15:43:02.856Z,89.80
2017-05-02T15:45:31.374Z,89.30
2017-05-02T15:48:00.455Z,89.40
2017-05-02T15:50:28.785Z,89.70
2017-05-02T15:52:57.322Z,90.10
2017-05-02T15:55:25.667Z,89.80
2017-05-02T15:57:54.102Z,88.70
2017-05-02T16:00:22.504Z,90.20
2017-05-02T16:02:50.827Z,89.90
2017-05-02T16:05:19.161Z,91.00
2017-05-02T16:07:47.704Z,91.10
2017-05-02T16:10:16.773Z,91.30
2017-05-02T16:12:45.104Z,92.10
2017-05-02T16:15:13.659Z,92.10
2017-05-02T16:17:42.728Z,93.20
2017-05-02T16:20:11.049Z,93.40
2017-05-02T16:22:39.416Z,94.10
2017-05-02T16:25:07.740Z,93.50
2017-05-02T16:27:36.106Z,94.30
2017-05-02T16:30:04.629Z,94.40
2017-05-02T16:32:33.134Z,94.70
2017-05-02T16:35:01.457Z,95.00
2017-05-02T16:37:29.980Z,94.90
2017-05-02T16:39:58.327Z,95.30
2017-05-02T16:42:26.719Z,94.80
2017-05-02T16:44:55.247Z,95.10
2017-05-02T16:47:23.602Z,95.20
2017-05-02T16:49:52.400Z,95.60
2017-05-02T16:52:20.848Z,95.30
2017-05-02T16:54:49.181Z,95.60
2017-05-02T16:57:17.553Z,96.10
2017-05-02T16:59:45.960Z,96.40
2017-05-02T17:02:14.288Z,96.70
2017-05-02T17:04:42.636Z,96.90
2017-05-02T17:07:11.028Z,96.70
2017-05-02T17:09:39.409Z,97.00
2017-05-02T17:12:08.529Z,97.50
2017-05-02T17:14:36.981Z,97.60
2017-05-02T17:17:05.411Z,98.00
2017-05-02T17:19:33.759Z,98.10
2017-05-02T17:22:02.320Z,98.70
2017-05-02T17:24:31.434Z,99.00
2017-05-02T17:26:59.800Z,98.70
2017-05-02T17:29:29.291Z,98.70
2017-05-02T17:31:58.378Z,98.70
2017-05-02T17:34:26.732Z,98.80
2017-05-02T17:36:55.257Z,99.20
2017-05-02T17:39:24.353Z,99.30
2017-05-02T17:41:52.790Z,99.70
2017-05-02T17:44:21.223Z,99.90
2017-05-02T17:46:49.608Z,99.90
2017-05-02T17:49:18.914Z,99.90
2017-05-02T17:51:47.460Z,99.90
2017-05-02T17:54:20.055Z,99.90
2017-05-02T17:56:49.001Z,99.90
2017-05-02T17:59:17.394Z,99.90
2017-05-02T18:01:45.747Z,99.90
2017-05-02T18:04:25.185Z,99.90
2017-05-02T18:07:01.841Z,99.90
2017-05-02T18:09:30.678Z,99.90
2017-05-02T18:11:59.046Z,99.90
2017-05-02T18:14:28.015Z,99.90
2017-05-02T18:16:56.919Z,99.90
2017-05-02T18:19:25.457Z,99.90
2017-05-02T18:21:54.277Z,99.90
2017-05-02T18:24:22.695Z,99.90
2017-05-02T18:26:51.149Z,99.90
2017-05-02T18:29:19.586Z,99.90
2017-05-02T18:31:48.068Z,99.90
2017-05-02T18:34:17.582Z,99.90
2017-05-02T18:36:45.976Z,99.90
2017-05-02T18:39:15.333Z,99.90
2017-05-02T18:41:44.357Z,99.90
2017-05-02T18:44:14.186Z,99.90
2017-05-02T18:46:43.012Z,99.90
2017-05-02T18:49:11.414Z,99.90
2017-05-02T18:51:40.004Z,99.90
2017-05-02T18:54:08.470Z,99.90
2017-05-02T18:56:36.834Z,99.90
2017-05-02T18:59:05.936Z,99.90
2017-05-02T19:01:35.279Z,99.90
2017-05-02T19:04:03.608Z,99.90
2017-05-02T19:06:32.678Z,99.90
2017-05-02T19:09:01.081Z,99.90
2017-05-02T19:11:29.481Z,99.90
2017-05-02T19:13:57.969Z,99.90
2017-05-02T19:16:26.526Z,99.90
2017-05-02T19:18:54.880Z,99.90
2017-05-02T19:21:23.225Z,99.90
2017-05-02T19:23:52.086Z,99.90
2017-05-02T19:26:20.439Z,99.90
2017-05-02T19:28:49.354Z,99.90
2017-05-02T19:31:18.173Z,99.90
2017-05-02T19:33:52.594Z,99.90
2017-05-02T19:36:21.790Z,99.90
2017-05-02T19:38:50.201Z,99.90
2017-05-02T19:41:18.540Z,99.90
2017-05-02T19:43:46.921Z,99.90
2017-05-02T19:46:15.426Z,99.90
2017-05-02T19:48:43.837Z,99.90
2017-05-02T19:51:12.318Z,99.90
2017-05-02T19:53:40.669Z,99.90
2017-05-02T19:56:09.017Z,99.90
2017-05-02T19:58:37.413Z,99.90
2017-05-02T20:01:05.778Z,99.90
2017-05-02T20:03:34.574Z,99.90
2017-05-02T20:06:02.959Z,99.90
2017-05-02T20:08:31.302Z,99.90
2017-05-02T20:10:59.646Z,99.90
2017-05-02T20:13:28.941Z,99.90
2017-05-02T20:15:57.288Z,99.90
2017-05-02T20:18:25.876Z,99.90
2017-05-02T20:20:54.324Z,99.90
2017-05-02T20:23:22.846Z,99.90
2017-05-02T20:25:51.224Z,99.90
2017-05-02T20:28:19.869Z,99.90
2017-05-02T20:30:48.200Z,99.90
2017-05-02T20:33:16.582Z,99.90
2017-05-02T20:35:45.796Z,99.90
2017-05-02T20:38:14.878Z,99.90
2017-05-02T20:40:43.449Z,99.90
2017-05-02T20:43:12.307Z,99.90
2017-05-02T20:45:40.670Z,99.90
2017-05-02T20:48:10.738Z,99.90
2017-05-02T20:50:39.711Z,99.90
2017-05-02T20:53:08.422Z,99.90
2017-05-02T20:55:36.810Z,99.90
2017-05-02T20:58:05.462Z,99.90
2017-05-02T21:00:33.796Z,99.80
2017-05-02T21:03:02.134Z,99.90
2017-05-02T21:05:30.526Z,99.90
2017-05-02T21:07:59.615Z,99.90
2017-05-02T21:10:27.952Z,99.70
2017-05-02T21:12:56.769Z,99.70
2017-05-02T21:15:25.149Z,99.60
2017-05-02T21:17:59.874Z,99.90
2017-05-02T21:20:28.229Z,99.70
2017-05-02T21:22:56.604Z,99.70
2017-05-02T21:25:25.186Z,99.50
2017-05-02T21:27:55.070Z,99.50
2017-05-02T21:30:23.424Z,99.50
2017-05-02T21:32:52.501Z,99.20
2017-05-02T21:35:21.017Z,99.10
2017-05-02T21:37:49.461Z,98.90
2017-05-02T21:40:17.796Z,98.90
2017-05-02T21:42:46.335Z,99.30
2017-05-02T21:45:14.671Z,99.40
2017-05-02T21:47:43.007Z,99.10
2017-05-02T21:50:11.404Z,99.30
2017-05-02T21:52:39.897Z,99.00
2017-05-02T21:55:08.241Z,99.00
2017-05-02T21:57:37.500Z,99.00
2017-05-02T22:00:05.827Z,98.90
2017-05-02T22:02:40.839Z,98.90
2017-05-02T22:05:09.923Z,98.70
2017-05-02T22:07:39.007Z,98.70
2017-05-02T22:10:07.621Z,98.90
2017-05-02T22:12:35.951Z,98.80
2017-05-02T22:15:04.292Z,98.60
2017-05-02T22:17:32.788Z,98.70
2017-05-02T22:20:01.113Z,98.70
2017-05-02T22:22:29.450Z,98.80
2017-05-02T22:24:57.830Z,98.90
2017-05-02T22:27:26.164Z,98.70
2017-05-02T22:29:54.536Z,98.70
2017-05-02T22:32:23.780Z,98.60
2017-05-02T22:34:52.115Z,98.80
2017-05-02T22:37:21.198Z,98.90
2017-05-02T22:39:49.590Z,98.80
2017-05-02T22:42:18.672Z,98.80
2017-05-02T22:44:47.026Z,98.70
2017-05-02T22:47:15.539Z,98.60
2017-05-02T22:49:44.609Z,98.50
2017-05-02T22:52:12.932Z,98.30
2017-05-02T22:54:43.025Z,98.50
2017-05-02T22:57:11.591Z,98.60
2017-05-02T22:59:39.932Z,98.70
2017-05-02T23:02:08.285Z,98.80
2017-05-02T23:04:36.631Z,98.60
2017-05-02T23:07:04.975Z,98.30
2017-05-02T23:09:33.484Z,97.90
2017-05-02T23:12:01.840Z,97.80
2017-05-02T23:14:30.166Z,97.80
2017-05-02T23:16:58.528Z,98.00
2017-05-02T23:19:26.911Z,98.00
2017-05-02T23:21:55.996Z,97.90
2017-05-02T23:24:24.513Z,97.90
2017-05-02T23:26:52.862Z,97.90
2017-05-02T23:29:21.193Z,98.00
2017-05-02T23:31:49.571Z,98.20
2017-05-02T23:34:17.905Z,98.30
2017-05-02T23:36:47.585Z,98.40
2017-05-02T23:39:16.042Z,98.00
2017-05-02T23:41:44.391Z,98.10
2017-05-02T23:44:12.725Z,98.20
2017-05-02T23:46:41.228Z,98.10
2017-05-02T23:49:10.326Z,98.20
2017-05-02T23:51:39.402Z,98.00
2017-05-02T23:54:07.873Z,98.00
2017-05-02T23:56:36.216Z,98.20
2017-05-02T23:59:04.540Z,98.20
